sensor_id;sensor_type;location;lat;lon;timestamp;temperature;humidity
54202;DHT22;40108;53.152;5.844;2022-08-11T00:01:44;17.40;89.50
54202;DHT22;40108;53.152;5.844;2022-08-11T00:04:11;17.40;89.30
54202;DHT22;40108;53.152;5.844;2022-08-11T00:06:38;17.40;89.30
54202;DHT22;40108;53.152;5.844;2022-08-11T00:09:12;17.40;89.30
54202;DHT22;40108;53.152;5.844;2022-08-11T00:11:43;17.40;89.40
54202;DHT22;40108;53.152;5.844;2022-08-11T00:14:24;17.40;89.70
54202;DHT22;40108;53.152;5.844;2022-08-11T00:17:05;17.40;90.20
54202;DHT22;40108;53.152;5.844;2022-08-11T00:19:58;17.40;90.20
54202;DHT22;40108;53.152;5.844;2022-08-11T00:22:24;17.40;90.20
54202;DHT22;40108;53.152;5.844;2022-08-11T00:24:51;17.40;90.00
54202;DHT22;40108;53.152;5.844;2022-08-11T00:27:17;17.40;89.80
54202;DHT22;40108;53.152;5.844;2022-08-11T00:29:53;17.40;90.00
54202;DHT22;40108;53.152;5.844;2022-08-11T00:32:19;17.30;89.70
54202;DHT22;40108;53.152;5.844;2022-08-11T00:34:46;17.30;89.90
54202;DHT22;40108;53.152;5.844;2022-08-11T00:37:18;17.30;89.90
54202;DHT22;40108;53.152;5.844;2022-08-11T00:39:48;17.20;89.70
54202;DHT22;40108;53.152;5.844;2022-08-11T00:45:34;17.20;89.80
54202;DHT22;40108;53.152;5.844;2022-08-11T00:48:18;17.20;89.80
54202;DHT22;40108;53.152;5.844;2022-08-11T00:53:48;17.10;90.00
54202;DHT22;40108;53.152;5.844;2022-08-11T00:57:10;17.10;90.00
54202;DHT22;40108;53.152;5.844;2022-08-11T01:10:42;17.10;89.80
54202;DHT22;40108;53.152;5.844;2022-08-11T01:39:16;16.80;89.50
54202;DHT22;40108;53.152;5.844;2022-08-11T01:51:07;16.70;89.50
54202;DHT22;40108;53.152;5.844;2022-08-11T01:54:23;16.60;89.50
54202;DHT22;40108;53.152;5.844;2022-08-11T01:57:08;16.60;89.40
54202;DHT22;40108;53.152;5.844;2022-08-11T01:59:42;16.60;89.50
54202;DHT22;40108;53.152;5.844;2022-08-11T02:11:26;16.50;89.90
54202;DHT22;40108;53.152;5.844;2022-08-11T02:23:00;16.40;89.80
54202;DHT22;40108;53.152;5.844;2022-08-11T02:34:39;16.30;90.00
54202;DHT22;40108;53.152;5.844;2022-08-11T02:42:52;16.20;90.20
54202;DHT22;40108;53.152;5.844;2022-08-11T02:45:40;16.20;90.20
54202;DHT22;40108;53.152;5.844;2022-08-11T02:56:39;16.10;90.30
54202;DHT22;40108;53.152;5.844;2022-08-11T02:59:40;16.10;90.30
54202;DHT22;40108;53.152;5.844;2022-08-11T03:05:02;16.10;90.70
54202;DHT22;40108;53.152;5.844;2022-08-11T03:13:21;16.00;90.70
54202;DHT22;40108;53.152;5.844;2022-08-11T03:16:25;16.00;90.80
54202;DHT22;40108;53.152;5.844;2022-08-11T03:25:11;15.90;90.90
54202;DHT22;40108;53.152;5.844;2022-08-11T03:27:56;15.90;90.80
54202;DHT22;40108;53.152;5.844;2022-08-11T03:33:43;15.90;91.00
54202;DHT22;40108;53.152;5.844;2022-08-11T03:44:58;15.80;90.70
54202;DHT22;40108;53.152;5.844;2022-08-11T03:47:36;15.90;90.70
54202;DHT22;40108;53.152;5.844;2022-08-11T03:50:31;15.90;91.00
54202;DHT22;40108;53.152;5.844;2022-08-11T03:56:10;15.80;91.20
54202;DHT22;40108;53.152;5.844;2022-08-11T04:16:43;15.70;91.40
54202;DHT22;40108;53.152;5.844;2022-08-11T04:27:44;15.60;91.60
54202;DHT22;40108;53.152;5.844;2022-08-11T04:33:40;15.60;91.80
54202;DHT22;40108;53.152;5.844;2022-08-11T04:51:29;15.70;92.30
54202;DHT22;40108;53.152;5.844;2022-08-11T04:57:46;15.70;92.40
54202;DHT22;40108;53.152;5.844;2022-08-11T05:00:52;15.70;92.40
54202;DHT22;40108;53.152;5.844;2022-08-11T05:12:45;15.90;92.70
54202;DHT22;40108;53.152;5.844;2022-08-11T05:15:18;15.90;92.70
54202;DHT22;40108;53.152;5.844;2022-08-11T05:18:07;16.00;92.90
54202;DHT22;40108;53.152;5.844;2022-08-11T05:20:55;16.00;92.80
54202;DHT22;40108;53.152;5.844;2022-08-11T05:23:45;16.00;92.80
54202;DHT22;40108;53.152;5.844;2022-08-11T05:26:45;16.10;92.80
54202;DHT22;40108;53.152;5.844;2022-08-11T05:29:52;16.10;92.80
54202;DHT22;40108;53.152;5.844;2022-08-11T05:32:41;16.20;93.10
54202;DHT22;40108;53.152;5.844;2022-08-11T05:35:31;16.20;92.80
54202;DHT22;40108;53.152;5.844;2022-08-11T05:38:00;16.30;93.00
54202;DHT22;40108;53.152;5.844;2022-08-11T05:40:49;16.40;93.30
54202;DHT22;40108;53.152;5.844;2022-08-11T05:43:40;16.50;93.20
54202;DHT22;40108;53.152;5.844;2022-08-11T05:46:27;16.60;93.40
54202;DHT22;40108;53.152;5.844;2022-08-11T05:49:13;16.60;93.30
54202;DHT22;40108;53.152;5.844;2022-08-11T05:51:58;16.80;93.20
54202;DHT22;40108;53.152;5.844;2022-08-11T05:54:43;16.90;93.20
54202;DHT22;40108;53.152;5.844;2022-08-11T05:57:35;17.00;93.20
54202;DHT22;40108;53.152;5.844;2022-08-11T06:00:05;17.10;93.10
54202;DHT22;40108;53.152;5.844;2022-08-11T06:02:49;17.20;93.00
54202;DHT22;40108;53.152;5.844;2022-08-11T06:05:16;17.40;92.80
54202;DHT22;40108;53.152;5.844;2022-08-11T06:07:42;17.50;92.70
54202;DHT22;40108;53.152;5.844;2022-08-11T06:10:11;17.60;92.60
54202;DHT22;40108;53.152;5.844;2022-08-11T06:12:37;17.80;92.50
54202;DHT22;40108;53.152;5.844;2022-08-11T06:15:06;17.90;92.00
54202;DHT22;40108;53.152;5.844;2022-08-11T06:17:42;18.10;91.90
54202;DHT22;40108;53.152;5.844;2022-08-11T06:20:09;18.30;91.70
54202;DHT22;40108;53.152;5.844;2022-08-11T06:22:37;18.40;91.30
54202;DHT22;40108;53.152;5.844;2022-08-11T06:25:05;18.60;90.50
54202;DHT22;40108;53.152;5.844;2022-08-11T06:27:34;18.70;90.10
54202;DHT22;40108;53.152;5.844;2022-08-11T06:30:01;18.80;89.90
54202;DHT22;40108;53.152;5.844;2022-08-11T06:32:32;19.00;89.50
54202;DHT22;40108;53.152;5.844;2022-08-11T06:43:04;19.50;88.80
54202;DHT22;40108;53.152;5.844;2022-08-11T06:45:54;19.60;87.70
54202;DHT22;40108;53.152;5.844;2022-08-11T06:48:23;19.70;87.60
54202;DHT22;40108;53.152;5.844;2022-08-11T06:50:58;19.80;87.10
54202;DHT22;40108;53.152;5.844;2022-08-11T06:53:57;19.90;87.20
54202;DHT22;40108;53.152;5.844;2022-08-11T06:56:29;20.10;85.10
54202;DHT22;40108;53.152;5.844;2022-08-11T06:59:16;20.10;83.50
54202;DHT22;40108;53.152;5.844;2022-08-11T07:02:19;20.30;83.90
54202;DHT22;40108;53.152;5.844;2022-08-11T07:04:51;20.60;83.80
54202;DHT22;40108;53.152;5.844;2022-08-11T07:13:35;22.30;78.40
54202;DHT22;40108;53.152;5.844;2022-08-11T07:16:27;22.60;76.90
54202;DHT22;40108;53.152;5.844;2022-08-11T07:19:03;22.90;74.90
54202;DHT22;40108;53.152;5.844;2022-08-11T07:21:48;23.20;73.80
54202;DHT22;40108;53.152;5.844;2022-08-11T07:25:12;23.50;74.10
54202;DHT22;40108;53.152;5.844;2022-08-11T07:28:02;24.00;74.50
54202;DHT22;40108;53.152;5.844;2022-08-11T07:30:47;24.30;73.60
54202;DHT22;40108;53.152;5.844;2022-08-11T07:33:21;24.40;68.10
54202;DHT22;40108;53.152;5.844;2022-08-11T07:35:52;24.50;69.80
54202;DHT22;40108;53.152;5.844;2022-08-11T07:38:26;24.60;67.40
54202;DHT22;40108;53.152;5.844;2022-08-11T07:41:15;24.90;69.10
54202;DHT22;40108;53.152;5.844;2022-08-11T07:43:43;25.10;67.20
54202;DHT22;40108;53.152;5.844;2022-08-11T07:46:13;25.30;68.40
54202;DHT22;40108;53.152;5.844;2022-08-11T07:48:58;25.60;68.80
54202;DHT22;40108;53.152;5.844;2022-08-11T07:51:43;25.80;66.60
54202;DHT22;40108;53.152;5.844;2022-08-11T07:54:28;26.00;62.60
54202;DHT22;40108;53.152;5.844;2022-08-11T07:56:55;26.20;64.20
54202;DHT22;40108;53.152;5.844;2022-08-11T07:59:22;26.40;65.40
54202;DHT22;40108;53.152;5.844;2022-08-11T08:02:08;26.50;63.30
54202;DHT22;40108;53.152;5.844;2022-08-11T08:04:54;26.70;62.70
54202;DHT22;40108;53.152;5.844;2022-08-11T08:07:39;26.70;61.60
54202;DHT22;40108;53.152;5.844;2022-08-11T08:10:26;26.90;61.30
54202;DHT22;40108;53.152;5.844;2022-08-11T08:13:12;27.00;61.60
54202;DHT22;40108;53.152;5.844;2022-08-11T08:15:57;27.10;60.90
54202;DHT22;40108;53.152;5.844;2022-08-11T08:18:41;27.40;61.90
54202;DHT22;40108;53.152;5.844;2022-08-11T08:21:08;27.60;60.90
54202;DHT22;40108;53.152;5.844;2022-08-11T08:23:42;27.50;57.30
54202;DHT22;40108;53.152;5.844;2022-08-11T08:26:11;27.50;57.30
54202;DHT22;40108;53.152;5.844;2022-08-11T08:28:59;27.70;58.90
54202;DHT22;40108;53.152;5.844;2022-08-11T08:31:46;27.90;56.80
54202;DHT22;40108;53.152;5.844;2022-08-11T08:34:16;28.10;57.60
54202;DHT22;40108;53.152;5.844;2022-08-11T08:36:48;28.00;54.60
54202;DHT22;40108;53.152;5.844;2022-08-11T08:39:18;28.10;51.80
54202;DHT22;40108;53.152;5.844;2022-08-11T08:41:48;28.20;52.50
54202;DHT22;40108;53.152;5.844;2022-08-11T08:44:17;28.30;53.40
54202;DHT22;40108;53.152;5.844;2022-08-11T08:46:49;28.60;54.50
54202;DHT22;40108;53.152;5.844;2022-08-11T08:49:25;28.80;51.00
54202;DHT22;40108;53.152;5.844;2022-08-11T08:51:57;29.00;54.00
54202;DHT22;40108;53.152;5.844;2022-08-11T08:54:35;29.00;53.10
54202;DHT22;40108;53.152;5.844;2022-08-11T08:57:07;29.00;50.10
54202;DHT22;40108;53.152;5.844;2022-08-11T08:59:36;29.10;53.40
54202;DHT22;40108;53.152;5.844;2022-08-11T09:02:07;29.30;52.80
54202;DHT22;40108;53.152;5.844;2022-08-11T09:04:38;29.40;49.70
54202;DHT22;40108;53.152;5.844;2022-08-11T09:07:09;29.70;51.60
54202;DHT22;40108;53.152;5.844;2022-08-11T09:09:51;29.80;49.70
54202;DHT22;40108;53.152;5.844;2022-08-11T09:12:21;30.00;49.10
54202;DHT22;40108;53.152;5.844;2022-08-11T09:14:51;30.00;48.40
54202;DHT22;40108;53.152;5.844;2022-08-11T09:17:45;30.10;48.60
54202;DHT22;40108;53.152;5.844;2022-08-11T09:20:22;30.20;46.80
54202;DHT22;40108;53.152;5.844;2022-08-11T09:22:50;30.10;43.60
54202;DHT22;40108;53.152;5.844;2022-08-11T09:25:35;30.30;46.70
54202;DHT22;40108;53.152;5.844;2022-08-11T09:28:21;30.50;46.10
54202;DHT22;40108;53.152;5.844;2022-08-11T09:30:49;30.60;43.50
54202;DHT22;40108;53.152;5.844;2022-08-11T09:33:20;30.50;42.90
54202;DHT22;40108;53.152;5.844;2022-08-11T09:35:49;30.50;45.80
54202;DHT22;40108;53.152;5.844;2022-08-11T09:38:24;30.80;46.70
54202;DHT22;40108;53.152;5.844;2022-08-11T09:41:10;30.90;41.20
54202;DHT22;40108;53.152;5.844;2022-08-11T09:43:40;30.70;37.90
54202;DHT22;40108;53.152;5.844;2022-08-11T09:46:27;30.80;40.70
54202;DHT22;40108;53.152;5.844;2022-08-11T09:48:57;31.10;41.60
54202;DHT22;40108;53.152;5.844;2022-08-11T09:51:24;31.10;37.60
54202;DHT22;40108;53.152;5.844;2022-08-11T09:53:51;31.10;37.60
54202;DHT22;40108;53.152;5.844;2022-08-11T09:56:19;31.20;37.90
54202;DHT22;40108;53.152;5.844;2022-08-11T09:59:05;31.00;37.80
54202;DHT22;40108;53.152;5.844;2022-08-11T10:01:38;31.00;39.20
54202;DHT22;40108;53.152;5.844;2022-08-11T10:04:32;31.10;39.50
54202;DHT22;40108;53.152;5.844;2022-08-11T10:07:02;31.20;38.50
54202;DHT22;40108;53.152;5.844;2022-08-11T10:09:39;31.30;38.10
54202;DHT22;40108;53.152;5.844;2022-08-11T10:12:12;31.30;38.30
54202;DHT22;40108;53.152;5.844;2022-08-11T10:14:52;31.40;39.90
54202;DHT22;40108;53.152;5.844;2022-08-11T10:17:40;31.40;36.70
54202;DHT22;40108;53.152;5.844;2022-08-11T10:20:29;31.40;36.90
54202;DHT22;40108;53.152;5.844;2022-08-11T10:22:57;31.50;37.90
54202;DHT22;40108;53.152;5.844;2022-08-11T10:25:42;31.40;37.40
54202;DHT22;40108;53.152;5.844;2022-08-11T10:28:27;31.40;36.30
54202;DHT22;40108;53.152;5.844;2022-08-11T10:30:54;31.20;36.70
54202;DHT22;40108;53.152;5.844;2022-08-11T10:33:40;31.10;36.30
54202;DHT22;40108;53.152;5.844;2022-08-11T10:36:26;31.20;36.70
54202;DHT22;40108;53.152;5.844;2022-08-11T10:38:54;31.30;38.20
54202;DHT22;40108;53.152;5.844;2022-08-11T10:41:24;31.40;37.90
54202;DHT22;40108;53.152;5.844;2022-08-11T10:44:09;31.30;36.70
54202;DHT22;40108;53.152;5.844;2022-08-11T10:46:37;31.20;35.70
54202;DHT22;40108;53.152;5.844;2022-08-11T10:49:27;31.30;36.60
54202;DHT22;40108;53.152;5.844;2022-08-11T10:51:56;31.30;37.10
54202;DHT22;40108;53.152;5.844;2022-08-11T10:54:41;31.40;38.50
54202;DHT22;40108;53.152;5.844;2022-08-11T10:57:27;31.30;38.90
54202;DHT22;40108;53.152;5.844;2022-08-11T11:00:13;31.50;36.10
54202;DHT22;40108;53.152;5.844;2022-08-11T11:02:43;31.50;35.00
54202;DHT22;40108;53.152;5.844;2022-08-11T11:05:22;31.30;37.20
54202;DHT22;40108;53.152;5.844;2022-08-11T11:08:00;31.00;37.60
54202;DHT22;40108;53.152;5.844;2022-08-11T11:10:50;31.10;39.30
54202;DHT22;40108;53.152;5.844;2022-08-11T11:13:16;31.20;38.60
54202;DHT22;40108;53.152;5.844;2022-08-11T11:16:01;31.30;39.10
54202;DHT22;40108;53.152;5.844;2022-08-11T11:18:45;31.40;36.80
54202;DHT22;40108;53.152;5.844;2022-08-11T11:21:19;31.50;38.00
54202;DHT22;40108;53.152;5.844;2022-08-11T11:37:32;31.60;38.70
54202;DHT22;40108;53.152;5.844;2022-08-11T11:40:07;31.60;37.10
54202;DHT22;40108;53.152;5.844;2022-08-11T11:42:35;31.50;35.10
54202;DHT22;40108;53.152;5.844;2022-08-11T11:45:04;31.60;36.60
54202;DHT22;40108;53.152;5.844;2022-08-11T11:47:31;31.40;36.70
54202;DHT22;40108;53.152;5.844;2022-08-11T11:49:58;31.40;36.20
54202;DHT22;40108;53.152;5.844;2022-08-11T11:52:24;31.30;35.50
54202;DHT22;40108;53.152;5.844;2022-08-11T11:54:53;31.30;35.40
54202;DHT22;40108;53.152;5.844;2022-08-11T11:57:20;31.50;37.60
54202;DHT22;40108;53.152;5.844;2022-08-11T12:00:09;31.60;35.60
54202;DHT22;40108;53.152;5.844;2022-08-11T12:02:55;31.70;36.90
54202;DHT22;40108;53.152;5.844;2022-08-11T12:05:23;31.60;35.80
54202;DHT22;40108;53.152;5.844;2022-08-11T12:07:49;31.80;36.40
54202;DHT22;40108;53.152;5.844;2022-08-11T12:10:49;31.80;35.90
54202;DHT22;40108;53.152;5.844;2022-08-11T12:13:36;31.90;35.30
54202;DHT22;40108;53.152;5.844;2022-08-11T12:16:10;31.90;34.20
54202;DHT22;40108;53.152;5.844;2022-08-11T12:18:39;31.90;34.30
54202;DHT22;40108;53.152;5.844;2022-08-11T12:21:07;31.70;35.20
54202;DHT22;40108;53.152;5.844;2022-08-11T12:23:37;31.70;36.00
54202;DHT22;40108;53.152;5.844;2022-08-11T12:26:22;31.70;35.30
54202;DHT22;40108;53.152;5.844;2022-08-11T12:29:10;31.50;34.30
54202;DHT22;40108;53.152;5.844;2022-08-11T12:31:37;31.30;35.30
54202;DHT22;40108;53.152;5.844;2022-08-11T12:34:08;31.40;35.80
54202;DHT22;40108;53.152;5.844;2022-08-11T12:36:41;31.40;34.90
54202;DHT22;40108;53.152;5.844;2022-08-11T12:39:29;31.40;35.00
54202;DHT22;40108;53.152;5.844;2022-08-11T12:42:17;31.10;35.10
54202;DHT22;40108;53.152;5.844;2022-08-11T12:45:02;31.10;35.40
54202;DHT22;40108;53.152;5.844;2022-08-11T12:47:50;31.00;35.40
54202;DHT22;40108;53.152;5.844;2022-08-11T12:50:35;30.90;35.50
54202;DHT22;40108;53.152;5.844;2022-08-11T12:53:27;30.90;36.50
54202;DHT22;40108;53.152;5.844;2022-08-11T12:55:56;30.80;36.20
54202;DHT22;40108;53.152;5.844;2022-08-11T12:58:42;30.70;36.50
54202;DHT22;40108;53.152;5.844;2022-08-11T13:01:10;30.70;36.20
54202;DHT22;40108;53.152;5.844;2022-08-11T13:03:55;30.60;35.40
54202;DHT22;40108;53.152;5.844;2022-08-11T13:06:40;30.70;35.20
54202;DHT22;40108;53.152;5.844;2022-08-11T13:09:08;30.60;35.30
54202;DHT22;40108;53.152;5.844;2022-08-11T13:11:36;30.50;35.30
54202;DHT22;40108;53.152;5.844;2022-08-11T13:14:22;30.40;34.10
54202;DHT22;40108;53.152;5.844;2022-08-11T13:16:48;30.40;34.80
54202;DHT22;40108;53.152;5.844;2022-08-11T13:19:33;30.30;35.60
54202;DHT22;40108;53.152;5.844;2022-08-11T13:22:00;30.20;35.00
54202;DHT22;40108;53.152;5.844;2022-08-11T13:24:27;30.10;35.70
54202;DHT22;40108;53.152;5.844;2022-08-11T13:26:53;30.00;35.20
54202;DHT22;40108;53.152;5.844;2022-08-11T13:29:24;30.00;35.90
54202;DHT22;40108;53.152;5.844;2022-08-11T13:31:53;29.90;36.30
54202;DHT22;40108;53.152;5.844;2022-08-11T13:34:23;29.90;36.10
54202;DHT22;40108;53.152;5.844;2022-08-11T13:36:50;29.90;37.60
54202;DHT22;40108;53.152;5.844;2022-08-11T13:39:17;29.90;36.30
54202;DHT22;40108;53.152;5.844;2022-08-11T13:41:44;29.80;36.40
54202;DHT22;40108;53.152;5.844;2022-08-11T13:44:14;29.80;34.80
54202;DHT22;40108;53.152;5.844;2022-08-11T13:46:42;29.60;35.20
54202;DHT22;40108;53.152;5.844;2022-08-11T13:49:09;29.60;39.80
54202;DHT22;40108;53.152;5.844;2022-08-11T13:51:36;29.60;40.90
54202;DHT22;40108;53.152;5.844;2022-08-11T13:54:46;29.60;41.30
54202;DHT22;40108;53.152;5.844;2022-08-11T13:56:55;29.60;41.90
54202;DHT22;40108;53.152;5.844;2022-08-11T13:59:23;29.50;41.70
54202;DHT22;40108;53.152;5.844;2022-08-11T14:01:55;29.50;42.50
54202;DHT22;40108;53.152;5.844;2022-08-11T14:04:37;29.40;42.00
54202;DHT22;40108;53.152;5.844;2022-08-11T14:07:09;29.30;41.50
54202;DHT22;40108;53.152;5.844;2022-08-11T14:09:39;29.20;41.70
54202;DHT22;40108;53.152;5.844;2022-08-11T14:12:13;29.10;42.10
54202;DHT22;40108;53.152;5.844;2022-08-11T14:15:02;29.00;42.70
54202;DHT22;40108;53.152;5.844;2022-08-11T14:17:32;29.00;42.90
54202;DHT22;40108;53.152;5.844;2022-08-11T14:20:02;29.00;42.70
54202;DHT22;40108;53.152;5.844;2022-08-11T14:22:30;29.00;43.80
54202;DHT22;40108;53.152;5.844;2022-08-11T14:24:56;29.00;43.00
54202;DHT22;40108;53.152;5.844;2022-08-11T14:27:23;28.90;42.50
54202;DHT22;40108;53.152;5.844;2022-08-11T14:29:56;28.80;42.20
54202;DHT22;40108;53.152;5.844;2022-08-11T14:32:23;28.80;43.30
54202;DHT22;40108;53.152;5.844;2022-08-11T14:34:50;28.80;43.40
54202;DHT22;40108;53.152;5.844;2022-08-11T14:37:21;28.70;43.10
54202;DHT22;40108;53.152;5.844;2022-08-11T14:39:50;28.70;43.30
54202;DHT22;40108;53.152;5.844;2022-08-11T14:42:18;28.60;42.20
54202;DHT22;40108;53.152;5.844;2022-08-11T14:45:08;28.60;42.50
54202;DHT22;40108;53.152;5.844;2022-08-11T14:47:56;28.60;44.00
54202;DHT22;40108;53.152;5.844;2022-08-11T14:50:27;28.50;43.10
54202;DHT22;40108;53.152;5.844;2022-08-11T14:52:55;28.50;42.50
54202;DHT22;40108;53.152;5.844;2022-08-11T14:55:25;28.50;43.40
54202;DHT22;40108;53.152;5.844;2022-08-11T14:58:10;28.50;44.30
54202;DHT22;40108;53.152;5.844;2022-08-11T15:00:38;28.40;43.80
54202;DHT22;40108;53.152;5.844;2022-08-11T15:03:07;28.40;43.90
54202;DHT22;40108;53.152;5.844;2022-08-11T15:05:37;28.40;44.10
54202;DHT22;40108;53.152;5.844;2022-08-11T15:08:05;28.30;43.20
54202;DHT22;40108;53.152;5.844;2022-08-11T15:10:31;28.20;44.40
54202;DHT22;40108;53.152;5.844;2022-08-11T15:12:58;28.20;44.50
54202;DHT22;40108;53.152;5.844;2022-08-11T15:15:25;28.10;45.10
54202;DHT22;40108;53.152;5.844;2022-08-11T15:18:12;28.10;44.80
54202;DHT22;40108;53.152;5.844;2022-08-11T15:20:42;28.00;45.10
54202;DHT22;40108;53.152;5.844;2022-08-11T15:23:28;28.00;45.00
54202;DHT22;40108;53.152;5.844;2022-08-11T15:26:17;28.00;45.40
54202;DHT22;40108;53.152;5.844;2022-08-11T15:28:46;28.00;46.20
54202;DHT22;40108;53.152;5.844;2022-08-11T15:31:32;27.90;46.20
54202;DHT22;40108;53.152;5.844;2022-08-11T15:34:19;27.90;47.10
54202;DHT22;40108;53.152;5.844;2022-08-11T15:37:10;27.90;47.30
54202;DHT22;40108;53.152;5.844;2022-08-11T15:43:09;27.70;47.60
54202;DHT22;40108;53.152;5.844;2022-08-11T15:45:56;27.70;46.60
54202;DHT22;40108;53.152;5.844;2022-08-11T15:50:56;27.60;46.30
54202;DHT22;40108;53.152;5.844;2022-08-11T15:53:51;27.50;45.80
54202;DHT22;40108;53.152;5.844;2022-08-11T15:56:19;27.40;46.60
54202;DHT22;40108;53.152;5.844;2022-08-11T15:58:48;27.30;47.30
54202;DHT22;40108;53.152;5.844;2022-08-11T16:01:34;27.20;47.80
54202;DHT22;40108;53.152;5.844;2022-08-11T16:04:22;27.10;48.30
54202;DHT22;40108;53.152;5.844;2022-08-11T16:07:11;27.10;48.50
54202;DHT22;40108;53.152;5.844;2022-08-11T16:09:43;27.10;48.60
54202;DHT22;40108;53.152;5.844;2022-08-11T16:12:17;27.10;48.70
54202;DHT22;40108;53.152;5.844;2022-08-11T16:14:47;27.10;48.70
54202;DHT22;40108;53.152;5.844;2022-08-11T16:17:34;27.00;48.00
54202;DHT22;40108;53.152;5.844;2022-08-11T16:20:03;26.90;48.00
54202;DHT22;40108;53.152;5.844;2022-08-11T16:22:32;26.80;48.70
54202;DHT22;40108;53.152;5.844;2022-08-11T16:25:19;26.80;49.20
54202;DHT22;40108;53.152;5.844;2022-08-11T16:27:54;26.80;49.80
54202;DHT22;40108;53.152;5.844;2022-08-11T16:30:21;26.80;49.50
54202;DHT22;40108;53.152;5.844;2022-08-11T16:32:48;26.70;49.70
54202;DHT22;40108;53.152;5.844;2022-08-11T16:35:23;26.70;50.40
54202;DHT22;40108;53.152;5.844;2022-08-11T16:38:10;26.70;50.80
54202;DHT22;40108;53.152;5.844;2022-08-11T16:40:59;26.60;50.50
54202;DHT22;40108;53.152;5.844;2022-08-11T16:43:28;26.50;50.80
54202;DHT22;40108;53.152;5.844;2022-08-11T16:46:16;26.50;49.90
54202;DHT22;40108;53.152;5.844;2022-08-11T16:49:09;26.50;50.30
54202;DHT22;40108;53.152;5.844;2022-08-11T16:51:36;26.50;50.60
54202;DHT22;40108;53.152;5.844;2022-08-11T16:54:02;26.40;51.10
54202;DHT22;40108;53.152;5.844;2022-08-11T16:56:38;26.40;51.10
54202;DHT22;40108;53.152;5.844;2022-08-11T16:59:22;26.40;51.30
54202;DHT22;40108;53.152;5.844;2022-08-11T17:05:12;26.30;51.20
54202;DHT22;40108;53.152;5.844;2022-08-11T17:08:01;26.30;50.00
54202;DHT22;40108;53.152;5.844;2022-08-11T17:11:07;26.20;49.80
54202;DHT22;40108;53.152;5.844;2022-08-11T17:13:57;26.10;49.80
54202;DHT22;40108;53.152;5.844;2022-08-11T17:16:28;26.10;50.50
54202;DHT22;40108;53.152;5.844;2022-08-11T17:19:05;26.00;51.00
54202;DHT22;40108;53.152;5.844;2022-08-11T17:21:37;26.00;51.50
54202;DHT22;40108;53.152;5.844;2022-08-11T17:24:27;26.00;51.40
54202;DHT22;40108;53.152;5.844;2022-08-11T17:26:56;25.90;51.70
54202;DHT22;40108;53.152;5.844;2022-08-11T17:29:37;25.90;51.90
54202;DHT22;40108;53.152;5.844;2022-08-11T17:32:07;25.90;52.00
54202;DHT22;40108;53.152;5.844;2022-08-11T17:34:55;25.80;51.60
54202;DHT22;40108;53.152;5.844;2022-08-11T17:37:42;25.80;51.90
54202;DHT22;40108;53.152;5.844;2022-08-11T17:40:10;25.70;52.60
54202;DHT22;40108;53.152;5.844;2022-08-11T17:42:38;25.70;52.60
54202;DHT22;40108;53.152;5.844;2022-08-11T17:45:23;25.70;52.60
54202;DHT22;40108;53.152;5.844;2022-08-11T17:48:08;25.60;53.20
54202;DHT22;40108;53.152;5.844;2022-08-11T17:50:56;25.60;53.40
54202;DHT22;40108;53.152;5.844;2022-08-11T17:53:24;25.50;53.50
54202;DHT22;40108;53.152;5.844;2022-08-11T17:56:09;25.50;53.30
54202;DHT22;40108;53.152;5.844;2022-08-11T17:58:55;25.50;53.40
54202;DHT22;40108;53.152;5.844;2022-08-11T18:01:40;25.40;53.60
54202;DHT22;40108;53.152;5.844;2022-08-11T18:04:09;25.30;54.10
54202;DHT22;40108;53.152;5.844;2022-08-11T18:06:35;25.30;54.70
54202;DHT22;40108;53.152;5.844;2022-08-11T18:09:16;25.30;54.80
54202;DHT22;40108;53.152;5.844;2022-08-11T18:12:04;25.20;54.90
54202;DHT22;40108;53.152;5.844;2022-08-11T18:14:52;25.10;55.10
54202;DHT22;40108;53.152;5.844;2022-08-11T18:17:37;25.10;55.40
54202;DHT22;40108;53.152;5.844;2022-08-11T18:20:23;25.00;55.80
54202;DHT22;40108;53.152;5.844;2022-08-11T18:23:13;24.90;56.20
54202;DHT22;40108;53.152;5.844;2022-08-11T18:26:01;24.80;56.30
54202;DHT22;40108;53.152;5.844;2022-08-11T18:28:50;24.70;56.70
54202;DHT22;40108;53.152;5.844;2022-08-11T18:31:41;24.60;57.10
54202;DHT22;40108;53.152;5.844;2022-08-11T18:34:29;24.60;57.50
54202;DHT22;40108;53.152;5.844;2022-08-11T18:37:18;24.50;58.20
54202;DHT22;40108;53.152;5.844;2022-08-11T18:40:07;24.40;58.20
54202;DHT22;40108;53.152;5.844;2022-08-11T18:42:57;24.20;59.20
54202;DHT22;40108;53.152;5.844;2022-08-11T18:45:45;24.10;60.10
54202;DHT22;40108;53.152;5.844;2022-08-11T18:48:31;24.10;60.20
54202;DHT22;40108;53.152;5.844;2022-08-11T18:51:18;24.00;60.50
54202;DHT22;40108;53.152;5.844;2022-08-11T18:54:08;23.80;61.30
54202;DHT22;40108;53.152;5.844;2022-08-11T18:56:55;23.70;61.80
54202;DHT22;40108;53.152;5.844;2022-08-11T18:59:43;23.60;62.00
54202;DHT22;40108;53.152;5.844;2022-08-11T19:02:30;23.50;62.90
54202;DHT22;40108;53.152;5.844;2022-08-11T19:05:16;23.40;63.40
54202;DHT22;40108;53.152;5.844;2022-08-11T19:08:02;23.20;63.50
54202;DHT22;40108;53.152;5.844;2022-08-11T19:10:47;23.10;63.90
54202;DHT22;40108;53.152;5.844;2022-08-11T19:13:34;23.00;64.60
54202;DHT22;40108;53.152;5.844;2022-08-11T19:16:21;23.00;64.70
54202;DHT22;40108;53.152;5.844;2022-08-11T19:19:08;22.80;65.20
54202;DHT22;40108;53.152;5.844;2022-08-11T19:21:53;22.70;66.60
54202;DHT22;40108;53.152;5.844;2022-08-11T19:24:39;22.60;65.70
54202;DHT22;40108;53.152;5.844;2022-08-11T19:27:26;22.60;66.90
54202;DHT22;40108;53.152;5.844;2022-08-11T19:30:11;22.50;67.60
54202;DHT22;40108;53.152;5.844;2022-08-11T19:32:56;22.40;67.70
54202;DHT22;40108;53.152;5.844;2022-08-11T19:35:42;22.30;68.20
54202;DHT22;40108;53.152;5.844;2022-08-11T19:38:28;22.10;68.60
54202;DHT22;40108;53.152;5.844;2022-08-11T19:41:14;22.00;69.00
54202;DHT22;40108;53.152;5.844;2022-08-11T19:43:59;22.00;69.30
54202;DHT22;40108;53.152;5.844;2022-08-11T19:46:47;21.80;69.60
54202;DHT22;40108;53.152;5.844;2022-08-11T19:49:32;21.70;69.90
54202;DHT22;40108;53.152;5.844;2022-08-11T19:52:17;21.70;70.10
54202;DHT22;40108;53.152;5.844;2022-08-11T19:55:03;21.60;70.90
54202;DHT22;40108;53.152;5.844;2022-08-11T19:57:48;21.60;71.00
54202;DHT22;40108;53.152;5.844;2022-08-11T20:00:34;21.60;71.10
54202;DHT22;40108;53.152;5.844;2022-08-11T20:03:18;21.40;71.80
54202;DHT22;40108;53.152;5.844;2022-08-11T20:06:06;21.40;71.60
54202;DHT22;40108;53.152;5.844;2022-08-11T20:08:55;21.30;72.20
54202;DHT22;40108;53.152;5.844;2022-08-11T20:11:43;21.20;72.90
54202;DHT22;40108;53.152;5.844;2022-08-11T20:14:32;21.20;73.00
54202;DHT22;40108;53.152;5.844;2022-08-11T20:17:17;21.20;72.70
54202;DHT22;40108;53.152;5.844;2022-08-11T20:20:04;21.10;72.70